White, Georgia
Current Conditions -  °F | °C
As of 3:53 PM on Tuesday 21 Oct 2014 (Local Time) from KVPC Reporting Station
Few Clouds Few Clouds  
Wind Chill: 74°   Ceiling: Unl
Heat Index: 74°   Visibility: 10mi
Dew Point: 50°   Wind: 6mph
Humidity: 43%   Direction: NA
Pressure: 29.97"   Gusts: NA
Location:  34.28°N, 84.75°W
Report Text: KVPC 211953Z AUTO VRB05KT 10SM FEW050 23/10 A2997 RMK AO2 SLP140 T02330100
Loading
Personal Weather Stations






























Interactive Weather Map
Tropical Storm Tracking
New forecast layout! Learn more

10-Day Weather Forecast

Advertisements
Track Severe Weather on mobile